Time;durP1;ratioP1;P1;durP2;ratioP2;P2;SDS_P1;SDS_P2;PMS_P1;PMS_P2;Temp;Humidity;BMP_temperature;BMP_pressure;BME280_temperature;BME280_humidity;BME280_pressure;Samples;Min_cycle;Max_cycle;Signal;HPM_P1;HPM_P2
2023/10/08 05:01:38;;;;;;;14.40;5.90;;;;;;;;;;5466647;23;20945;-76
2023/10/08 05:10:11;;;;;;;12.00;5.43;;;;;;;;;;4956612;29;20419;-76
2023/10/08 05:12:10;;;;;;;16.37;5.83;;;;;;;;;;4950874;28;20503;-76
2023/10/08 05:14:45;;;;;;;18.30;7.33;;;;;;;;;;4955487;29;20420;-75
2023/10/08 05:25:08;;;;;;;18.03;6.83;;;;;;;;;;4954967;29;20476;-75
2023/10/08 05:27:38;;;;;;;15.17;6.60;;;;;;;;;;4956038;28;20840;-75
2023/10/08 05:30:17;;;;;;;11.47;6.07;;;;;;;;;;4955132;29;20771;-74
2023/10/08 05:33:05;;;;;;;17.90;6.33;;;;;;;;;;4956183;28;20412;-74
2023/10/08 05:38:21;;;;;;;11.87;6.10;;;;;;;;;;4955791;29;20459;-75
2023/10/08 06:02:54;;;;;;;11.50;5.40;;;;;;;;;;4942479;29;20788;-76
2023/10/08 06:13:06;;;;;;;11.60;6.03;;;;;;;;;;4935927;29;20421;-76
2023/10/08 06:16:05;;;;;;;19.50;7.27;;;;;;;;;;4936776;29;20463;-74
2023/10/08 06:18:31;;;;;;;15.30;7.15;;;;;;;;;;4936749;29;20414;-74
2023/10/08 06:21:00;;;;;;;10.67;5.30;;;;;;;;;;4946655;29;20449;-75
2023/10/08 06:23:32;;;;;;;13.90;5.10;;;;;;;;;;4955274;29;20721;-74
2023/10/08 06:28:38;;;;;;;15.80;5.83;;;;;;;;;;4956034;29;20483;-75
2023/10/08 06:31:11;;;;;;;12.93;5.90;;;;;;;;;;4955039;28;20425;-75
2023/10/08 06:33:37;;;;;;;9.27;5.10;;;;;;;;;;4955145;28;20446;-74
2023/10/08 06:38:39;;;;;;;10.67;5.77;;;;;;;;;;4957149;29;20451;-75
2023/10/08 06:41:09;;;;;;;15.07;6.23;;;;;;;;;;4955058;29;20544;-75
2023/10/08 06:43:37;;;;;;;20.13;6.30;;;;;;;;;;4954744;29;20897;-75
2023/10/08 06:46:07;;;;;;;16.83;6.03;;;;;;;;;;4953349;29;20499;-75
2023/10/08 06:48:34;;;;;;;13.27;5.70;;;;;;;;;;4955344;28;20432;-75
2023/10/08 06:51:07;;;;;;;15.43;6.60;;;;;;;;;;4954566;28;20428;-75
2023/10/08 06:53:33;;;;;;;16.47;7.87;;;;;;;;;;4954724;28;20436;-75
2023/10/08 06:56:04;;;;;;;18.67;7.57;;;;;;;;;;4953416;29;20831;-75
2023/10/08 06:58:33;;;;;;;12.23;6.37;;;;;;;;;;4954128;28;20481;-75
2023/10/08 07:01:04;;;;;;;15.77;6.53;;;;;;;;;;4953333;29;20503;-75
2023/10/08 07:03:31;;;;;;;15.60;6.87;;;;;;;;;;4953176;29;20425;-75
2023/10/08 07:06:02;;;;;;;13.93;6.50;;;;;;;;;;4953606;28;20428;-74
2023/10/08 07:08:31;;;;;;;15.40;6.47;;;;;;;;;;4954335;28;20419;-74
2023/10/08 07:10:59;;;;;;;16.23;7.83;;;;;;;;;;4954442;28;20503;-75
2023/10/08 07:13:25;;;;;;;15.17;7.00;;;;;;;;;;4954456;28;20417;-75
2023/10/08 07:15:51;;;;;;;16.40;7.00;;;;;;;;;;4953937;29;20436;-75
2023/10/08 07:18:27;;;;;;;13.90;7.03;;;;;;;;;;4954049;29;20753;-75
2023/10/08 07:20:54;;;;;;;21.57;8.30;;;;;;;;;;4954215;29;20472;-77
2023/10/08 07:23:29;;;;;;;15.70;7.80;;;;;;;;;;4955011;29;20543;-75
2023/10/08 07:25:59;;;;;;;16.83;7.17;;;;;;;;;;4952871;29;20495;-75
2023/10/08 07:28:26;;;;;;;16.07;8.00;;;;;;;;;;4954039;28;20496;-76
2023/10/08 07:30:52;;;;;;;11.90;6.87;;;;;;;;;;4954013;28;21557;-76
2023/10/08 07:33:18;;;;;;;13.17;6.97;;;;;;;;;;4954049;29;20416;-75
2023/10/08 07:35:56;;;;;;;18.80;7.70;;;;;;;;;;4954062;29;20413;-75
2023/10/08 07:38:23;;;;;;;14.97;7.30;;;;;;;;;;4953752;28;20413;-75
2023/10/08 07:40:49;;;;;;;16.17;7.40;;;;;;;;;;4953881;29;20534;-75
2023/10/08 07:43:19;;;;;;;17.60;8.27;;;;;;;;;;4952278;29;20479;-75
2023/10/08 07:45:45;;;;;;;19.20;8.37;;;;;;;;;;4953892;28;20420;-76
2023/10/08 07:48:13;;;;;;;14.87;7.60;;;;;;;;;;4952246;29;20428;-75
2023/10/08 07:50:43;;;;;;;20.50;7.73;;;;;;;;;;4952627;29;20453;-75
2023/10/08 07:53:17;;;;;;;15.07;7.80;;;;;;;;;;4952771;29;20425;-75
2023/10/08 07:55:43;;;;;;;14.60;7.17;;;;;;;;;;4943974;28;20465;-76
2023/10/08 07:58:11;;;;;;;16.37;8.93;;;;;;;;;;4933367;29;20428;-75
2023/10/08 08:00:38;;;;;;;19.73;7.90;;;;;;;;;;4934606;29;21028;-76
2023/10/08 08:03:04;;;;;;;16.13;7.70;;;;;;;;;;4950576;29;20528;-76
2023/10/08 08:05:31;;;;;;;19.70;7.60;;;;;;;;;;4946684;29;20421;-76
2023/10/08 08:07:59;;;;;;;16.03;7.80;;;;;;;;;;4951070;29;20424;-75
2023/10/08 08:10:25;;;;;;;21.10;7.33;;;;;;;;;;4951804;29;20495;-75
2023/10/08 08:12:56;;;;;;;16.30;6.43;;;;;;;;;;4953164;29;20769;-75
2023/10/08 08:15:22;;;;;;;13.47;7.07;;;;;;;;;;4953182;28;20413;-75
2023/10/08 08:17:49;;;;;;;25.83;7.57;;;;;;;;;;4954527;28;20452;-75
2023/10/08 08:20:18;;;;;;;15.53;7.27;;;;;;;;;;4957075;29;20479;-74
2023/10/08 08:22:53;;;;;;;13.00;6.83;;;;;;;;;;4957290;29;20449;-75
2023/10/08 08:25:42;;;;;;;19.33;8.57;;;;;;;;;;4957328;28;20466;-65
2023/10/08 08:28:17;;;;;;;19.43;7.90;;;;;;;;;;4957009;28;20488;-64
2023/10/08 08:30:46;;;;;;;17.10;7.80;;;;;;;;;;4944383;28;20456;-65
2023/10/08 08:33:12;;;;;;;14.90;7.30;;;;;;;;;;4946941;29;20424;-73
2023/10/08 08:35:38;;;;;;;19.70;8.50;;;;;;;;;;4938913;29;20178;-73
2023/10/08 08:38:05;;;;;;;14.27;7.10;;;;;;;;;;4955285;28;20495;-74
2023/10/08 08:40:32;;;;;;;25.43;8.87;;;;;;;;;;4949804;28;21031;-74
2023/10/08 08:43:02;;;;;;;14.23;7.20;;;;;;;;;;4936190;29;20516;-75
2023/10/08 08:45:33;;;;;;;13.07;6.53;;;;;;;;;;4950596;29;20413;-74
2023/10/08 08:47:59;;;;;;;20.53;6.70;;;;;;;;;;4949132;28;20436;-72
2023/10/08 08:50:26;;;;;;;11.97;6.70;;;;;;;;;;4950678;29;20445;-73
2023/10/08 08:52:52;;;;;;;18.17;7.20;;;;;;;;;;4954131;29;20439;-73
2023/10/08 08:55:20;;;;;;;15.90;6.23;;;;;;;;;;4945904;29;20440;-72
2023/10/08 08:57:53;;;;;;;15.80;6.10;;;;;;;;;;4951753;28;21263;-73
2023/10/08 09:00:20;;;;;;;11.27;5.70;;;;;;;;;;4948836;29;20471;-72
2023/10/08 09:02:47;;;;;;;11.93;5.50;;;;;;;;;;4947703;28;20594;-72
2023/10/08 09:05:25;;;;;;;14.50;5.80;;;;;;;;;;4950819;29;20515;-72
2023/10/08 09:08:10;;;;;;;16.47;6.67;;;;;;;;;;4946841;28;20535;-72
2023/10/08 09:10:37;;;;;;;11.40;4.97;;;;;;;;;;4944926;29;20476;-73
2023/10/08 09:13:09;;;;;;;12.53;6.17;;;;;;;;;;4954960;29;20464;-74
2023/10/08 09:15:36;;;;;;;12.50;5.43;;;;;;;;;;4949258;28;20496;-74
2023/10/08 09:18:02;;;;;;;12.23;6.20;;;;;;;;;;4952114;29;20476;-75
2023/10/08 09:20:28;;;;;;;12.10;6.20;;;;;;;;;;4952498;29;20582;-73
2023/10/08 09:23:07;;;;;;;14.37;6.60;;;;;;;;;;4953432;29;20441;-72
2023/10/08 09:25:33;;;;;;;20.10;7.83;;;;;;;;;;4956214;28;20420;-71
2023/10/08 09:27:59;;;;;;;14.63;7.30;;;;;;;;;;4955916;28;20409;-72
2023/10/08 09:30:25;;;;;;;15.33;6.67;;;;;;;;;;4955381;28;20468;-71
2023/10/08 09:32:51;;;;;;;16.10;7.27;;;;;;;;;;4956476;28;20413;-71
2023/10/08 09:35:18;;;;;;;11.73;7.47;;;;;;;;;;4947949;29;20492;-72
2023/10/08 09:37:44;;;;;;;17.13;6.37;;;;;;;;;;4947386;29;20985;-71
2023/10/08 09:40:12;;;;;;;13.83;6.13;;;;;;;;;;4956430;29;20464;-70
2023/10/08 09:42:42;;;;;;;13.63;6.60;;;;;;;;;;4945665;29;20534;-72
2023/10/08 09:45:09;;;;;;;15.37;6.63;;;;;;;;;;4938040;29;20429;-72
2023/10/08 09:47:39;;;;;;;13.20;5.93;;;;;;;;;;4948081;29;20568;-72
2023/10/08 09:50:11;;;;;;;17.73;5.30;;;;;;;;;;4954883;29;20429;-71
2023/10/08 09:52:40;;;;;;;14.00;4.50;;;;;;;;;;4957057;28;20455;-72
2023/10/08 09:55:10;;;;;;;11.67;5.00;;;;;;;;;;4954376;29;20485;-73
2023/10/08 09:57:36;;;;;;;17.63;6.10;;;;;;;;;;4937415;29;20428;-73
2023/10/08 10:00:04;;;;;;;13.57;5.87;;;;;;;;;;4937055;29;20469;-73
2023/10/08 10:02:32;;;;;;;14.20;5.10;;;;;;;;;;4936483;29;20457;-73
2023/10/08 10:04:58;;;;;;;11.03;4.80;;;;;;;;;;4951559;29;20433;-73
2023/10/08 10:07:27;;;;;;;11.93;4.70;;;;;;;;;;4955371;29;20484;-73
2023/10/08 10:09:54;;;;;;;12.13;4.67;;;;;;;;;;4954965;28;20416;-73
2023/10/08 10:12:25;;;;;;;15.17;4.70;;;;;;;;;;4940284;29;20460;-73
2023/10/08 10:14:55;;;;;;;7.87;4.80;;;;;;;;;;4938901;28;20430;-72
2023/10/08 10:17:22;;;;;;;13.10;5.40;;;;;;;;;;4940712;29;20471;-73
2023/10/08 10:19:59;;;;;;;11.43;5.93;;;;;;;;;;4949593;29;21061;-72
2023/10/08 10:22:33;;;;;;;10.00;4.90;;;;;;;;;;4934927;29;20529;-72
2023/10/08 10:25:03;;;;;;;12.73;5.00;;;;;;;;;;4951425;29;20425;-72
2023/10/08 10:27:30;;;;;;;12.63;5.30;;;;;;;;;;4956003;28;20425;-72
2023/10/08 10:30:08;;;;;;;13.87;4.80;;;;;;;;;;4955772;29;20417;-73
2023/10/08 10:32:37;;;;;;;13.90;5.17;;;;;;;;;;4954871;29;20474;-73
2023/10/08 10:35:11;;;;;;;14.30;4.70;;;;;;;;;;4952631;29;20417;-73
2023/10/08 10:37:41;;;;;;;13.90;4.60;;;;;;;;;;4934170;29;20917;-73
2023/10/08 10:40:12;;;;;;;10.70;5.33;;;;;;;;;;4939048;28;20464;-73
2023/10/08 10:42:42;;;;;;;12.80;5.07;;;;;;;;;;4951281;28;20452;-73
2023/10/08 10:45:35;;;;;;;11.27;4.30;;;;;;;;;;4952303;29;20431;-73
2023/10/08 10:48:10;;;;;;;11.80;4.67;;;;;;;;;;4935128;29;20432;-73
2023/10/08 10:50:47;;;;;;;10.73;4.50;;;;;;;;;;4944777;29;20937;-73
2023/10/08 10:53:13;;;;;;;11.67;4.70;;;;;;;;;;4954899;29;20452;-76
2023/10/08 10:55:48;;;;;;;13.47;5.43;;;;;;;;;;4948278;29;20441;-78
2023/10/08 10:58:15;;;;;;;12.47;4.93;;;;;;;;;;4935706;29;20424;-75
2023/10/08 11:03:17;;;;;;;9.70;5.13;;;;;;;;;;4935241;29;20773;-74
2023/10/08 11:05:48;;;;;;;10.13;5.03;;;;;;;;;;4935316;29;20819;-74
2023/10/08 11:08:14;;;;;;;8.97;4.30;;;;;;;;;;4938766;29;20920;-77
2023/10/08 11:10:46;;;;;;;11.17;5.20;;;;;;;;;;4954871;28;20436;-74
2023/10/08 11:13:15;;;;;;;17.97;5.47;;;;;;;;;;4954790;28;20475;-74
2023/10/08 11:15:41;;;;;;;9.17;4.70;;;;;;;;;;4954739;29;20413;-75
2023/10/08 11:18:08;;;;;;;11.20;4.50;;;;;;;;;;4954573;29;20499;-77
2023/10/08 11:20:39;;;;;;;11.37;5.10;;;;;;;;;;4955320;28;21050;-75
2023/10/08 11:23:17;;;;;;;12.63;4.70;;;;;;;;;;4955005;28;20528;-75
2023/10/08 11:25:53;;;;;;;8.70;4.90;;;;;;;;;;4952244;28;20785;-78
2023/10/08 11:28:19;;;;;;;11.70;4.73;;;;;;;;;;4935719;29;20476;-77
2023/10/08 11:30:46;;;;;;;11.73;5.27;;;;;;;;;;4935201;29;20440;-77
2023/10/08 11:33:15;;;;;;;9.43;4.70;;;;;;;;;;4936233;29;20827;-76
2023/10/08 11:35:55;;;;;;;13.07;4.90;;;;;;;;;;4935574;29;20781;-76
2023/10/08 11:38:22;;;;;;;8.43;4.60;;;;;;;;;;4935407;29;20411;-78
2023/10/08 11:40:56;;;;;;;9.40;4.57;;;;;;;;;;4935591;29;20493;-76
2023/10/08 11:43:22;;;;;;;11.67;4.90;;;;;;;;;;4934895;29;20468;-76
2023/10/08 11:45:48;;;;;;;11.83;4.57;;;;;;;;;;4933476;29;20425;-77
2023/10/08 11:48:25;;;;;;;12.80;5.47;;;;;;;;;;4934839;29;20420;-76
2023/10/08 11:50:51;;;;;;;15.30;5.60;;;;;;;;;;4935014;29;20557;-76
2023/10/08 11:53:19;;;;;;;7.87;4.60;;;;;;;;;;4934201;29;20422;-76
2023/10/08 11:55:47;;;;;;;15.10;5.00;;;;;;;;;;4952787;28;20796;-76
2023/10/08 11:58:17;;;;;;;13.90;5.20;;;;;;;;;;4953659;28;20428;-77
2023/10/08 12:00:44;;;;;;;14.13;4.53;;;;;;;;;;4953550;28;20476;-77
2023/10/08 12:03:11;;;;;;;12.17;5.87;;;;;;;;;;4953473;28;20972;-76
2023/10/08 12:05:38;;;;;;;12.10;5.43;;;;;;;;;;4953774;28;20499;-77
2023/10/08 12:08:08;;;;;;;14.83;4.57;;;;;;;;;;4954338;28;20788;-77
2023/10/08 12:10:34;;;;;;;14.10;5.60;;;;;;;;;;4955205;28;20802;-76
2023/10/08 12:13:00;;;;;;;10.90;4.27;;;;;;;;;;4955251;28;20439;-76
2023/10/08 12:15:34;;;;;;;11.50;5.40;;;;;;;;;;4954501;29;20935;-76
2023/10/08 12:18:24;;;;;;;12.10;4.80;;;;;;;;;;4953352;28;20409;-76
2023/10/08 12:20:50;;;;;;;12.63;4.97;;;;;;;;;;4953722;28;20468;-77
2023/10/08 12:23:34;;;;;;;14.80;6.90;;;;;;;;;;4953967;29;20419;-77
2023/10/08 12:26:00;;;;;;;13.33;5.50;;;;;;;;;;4951850;28;20791;-76
2023/10/08 12:28:29;;;;;;;22.40;5.93;;;;;;;;;;4943373;28;20428;-76
2023/10/08 12:30:56;;;;;;;11.30;5.97;;;;;;;;;;4954517;29;20875;-76
2023/10/08 12:33:25;;;;;;;16.50;5.37;;;;;;;;;;4953914;29;20487;-77
2023/10/08 12:36:05;;;;;;;13.83;5.33;;;;;;;;;;4953776;28;20488;-77
2023/10/08 12:38:31;;;;;;;10.60;4.57;;;;;;;;;;4945591;29;20951;-77
2023/10/08 12:40:59;;;;;;;12.37;5.80;;;;;;;;;;4944376;29;20535;-77
2023/10/08 12:43:28;;;;;;;15.43;6.10;;;;;;;;;;4954027;28;20465;-77
2023/10/08 12:45:56;;;;;;;16.80;5.90;;;;;;;;;;4953457;29;20467;-76
2023/10/08 12:48:24;;;;;;;11.43;5.57;;;;;;;;;;4952786;28;20409;-77
2023/10/08 12:50:53;;;;;;;10.63;5.30;;;;;;;;;;4950715;28;20451;-77
2023/10/08 12:53:27;;;;;;;14.70;5.30;;;;;;;;;;4936342;29;20429;-76
2023/10/08 12:55:53;;;;;;;11.80;5.20;;;;;;;;;;4934254;29;20430;-77
2023/10/08 12:58:25;;;;;;;12.67;5.77;;;;;;;;;;4934209;29;20427;-76
2023/10/08 13:00:57;;;;;;;21.23;6.20;;;;;;;;;;4936459;29;20552;-77
2023/10/08 13:03:23;;;;;;;12.23;5.20;;;;;;;;;;4952342;28;21019;-77
2023/10/08 13:05:52;;;;;;;18.63;6.03;;;;;;;;;;4956630;29;20452;-77
2023/10/08 13:08:19;;;;;;;14.80;5.93;;;;;;;;;;4957280;28;20903;-77
2023/10/08 13:10:45;;;;;;;15.93;5.07;;;;;;;;;;4961599;28;20440;-77
2023/10/08 13:13:12;;;;;;;16.13;6.20;;;;;;;;;;4960781;29;20433;-76
2023/10/08 13:15:38;;;;;;;18.93;5.20;;;;;;;;;;4952225;29;20418;-77
2023/10/08 13:18:04;;;;;;;18.30;5.73;;;;;;;;;;4952913;29;20414;-77
2023/10/08 13:20:34;;;;;;;15.70;5.83;;;;;;;;;;4950397;29;20536;-77
2023/10/08 13:23:04;;;;;;;17.63;6.17;;;;;;;;;;4946870;29;20402;-77
2023/10/08 13:25:33;;;;;;;12.57;5.60;;;;;;;;;;4937825;29;20426;-77
2023/10/08 13:28:00;;;;;;;14.20;5.47;;;;;;;;;;4937387;29;20496;-77
2023/10/08 13:30:26;;;;;;;16.73;5.93;;;;;;;;;;4937446;29;20424;-77
2023/10/08 13:32:53;;;;;;;23.97;5.70;;;;;;;;;;4935976;29;20414;-77
2023/10/08 13:35:19;;;;;;;18.03;6.70;;;;;;;;;;4937031;29;20421;-77
2023/10/08 13:37:48;;;;;;;21.20;5.60;;;;;;;;;;4936830;29;20440;-77
2023/10/08 13:40:15;;;;;;;15.20;5.73;;;;;;;;;;4936974;29;20464;-77
2023/10/08 13:42:44;;;;;;;19.73;6.20;;;;;;;;;;4935543;29;20493;-77
2023/10/08 13:45:25;;;;;;;19.70;6.20;;;;;;;;;;4942852;29;20748;-77
2023/10/08 13:47:51;;;;;;;26.33;6.27;;;;;;;;;;4955462;28;20412;-77
2023/10/08 13:50:18;;;;;;;23.77;6.33;;;;;;;;;;4955471;29;20491;-77
2023/10/08 13:52:44;;;;;;;18.80;6.00;;;;;;;;;;4956167;28;20412;-77
2023/10/08 13:55:13;;;;;;;19.13;4.87;;;;;;;;;;4955758;29;20778;-77
2023/10/08 13:57:42;;;;;;;19.30;5.97;;;;;;;;;;4961835;28;20911;-77
2023/10/08 14:00:15;;;;;;;23.77;6.10;;;;;;;;;;4964246;28;20460;-77
2023/10/08 14:02:42;;;;;;;29.20;6.30;;;;;;;;;;4939934;28;20520;-77
2023/10/08 14:05:08;;;;;;;12.30;4.67;;;;;;;;;;4935285;29;20434;-77
2023/10/08 14:07:35;;;;;;;18.70;6.40;;;;;;;;;;4936308;29;20405;-77
2023/10/08 14:10:05;;;;;;;21.13;6.20;;;;;;;;;;4944798;29;20915;-77
2023/10/08 14:12:34;;;;;;;18.33;5.70;;;;;;;;;;4941518;28;20441;-77
2023/10/08 14:15:05;;;;;;;16.17;5.73;;;;;;;;;;4935976;29;20547;-77
2023/10/08 14:17:44;;;;;;;17.23;6.07;;;;;;;;;;4936035;29;20402;-77
2023/10/08 14:20:13;;;;;;;17.33;6.00;;;;;;;;;;4936100;29;20964;-77
2023/10/08 14:22:40;;;;;;;14.63;6.30;;;;;;;;;;4935046;29;20476;-77
2023/10/08 14:25:11;;;;;;;16.63;6.27;;;;;;;;;;4943743;29;20437;-77
2023/10/08 14:27:39;;;;;;;15.33;5.40;;;;;;;;;;4955051;28;20424;-75
2023/10/08 14:30:15;;;;;;;20.63;5.57;;;;;;;;;;4955039;28;20420;-75
2023/10/08 14:32:45;;;;;;;10.17;4.70;;;;;;;;;;4955238;28;20416;-75
2023/10/08 14:43:25;;;;;;;21.30;5.27;;;;;;;;;;4956245;29;20529;-78
2023/10/08 14:45:52;;;;;;;16.63;5.97;;;;;;;;;;4954478;29;20944;-75
2023/10/08 14:48:18;;;;;;;14.13;5.40;;;;;;;;;;4941333;28;20422;-75
2023/10/08 14:50:45;;;;;;;19.00;5.33;;;;;;;;;;4935846;29;20516;-75
2023/10/08 14:53:12;;;;;;;14.30;5.03;;;;;;;;;;4935541;29;20777;-76
2023/10/08 14:55:38;;;;;;;11.03;4.53;;;;;;;;;;4935931;29;20786;-76
2023/10/08 14:58:07;;;;;;;11.13;5.20;;;;;;;;;;4935537;29;20421;-75
2023/10/08 15:00:35;;;;;;;10.73;5.10;;;;;;;;;;4933830;29;20511;-75
2023/10/08 15:03:02;;;;;;;15.30;6.87;;;;;;;;;;4935029;29;20801;-75
2023/10/08 15:05:30;;;;;;;13.27;5.83;;;;;;;;;;4935398;29;20422;-76
2023/10/08 15:07:56;;;;;;;13.23;5.23;;;;;;;;;;4935272;29;20410;-75
2023/10/08 15:10:22;;;;;;;15.30;5.17;;;;;;;;;;4935716;29;20907;-74
2023/10/08 15:12:49;;;;;;;14.40;4.90;;;;;;;;;;4940126;29;20426;-73
2023/10/08 15:15:15;;;;;;;18.83;5.37;;;;;;;;;;4939348;28;20426;-74
2023/10/08 15:17:41;;;;;;;14.37;5.40;;;;;;;;;;4943785;29;20841;-76
2023/10/08 15:20:07;;;;;;;19.57;5.40;;;;;;;;;;4954605;28;20535;-75
2023/10/08 15:22:35;;;;;;;21.67;5.53;;;;;;;;;;4953756;29;20805;-73
2023/10/08 15:25:01;;;;;;;12.50;5.57;;;;;;;;;;4953565;28;20460;-73
2023/10/08 15:27:30;;;;;;;17.23;5.63;;;;;;;;;;4955622;28;20496;-78
2023/10/08 15:29:56;;;;;;;14.50;5.40;;;;;;;;;;4961001;28;20913;-80
2023/10/08 15:32:22;;;;;;;15.33;5.83;;;;;;;;;;4950842;29;20541;-79
2023/10/08 15:34:48;;;;;;;14.97;5.70;;;;;;;;;;4943501;29;20702;-79
2023/10/08 15:37:14;;;;;;;23.17;5.30;;;;;;;;;;4944565;29;20418;-80
2023/10/08 15:39:40;;;;;;;15.10;6.37;;;;;;;;;;4943557;29;20521;-79
2023/10/08 15:42:06;;;;;;;17.13;5.80;;;;;;;;;;4953354;29;20531;-78
2023/10/08 15:44:33;;;;;;;13.47;5.13;;;;;;;;;;4963087;29;20829;-78
2023/10/08 15:46:59;;;;;;;21.93;5.80;;;;;;;;;;4964671;29;20784;-79
2023/10/08 15:49:25;;;;;;;10.43;5.20;;;;;;;;;;4956181;28;20607;-80
2023/10/08 15:51:51;;;;;;;14.97;5.87;;;;;;;;;;4953137;29;20456;-80
2023/10/08 15:54:20;;;;;;;17.63;5.77;;;;;;;;;;4948319;29;20513;-80
2023/10/08 15:56:46;;;;;;;16.27;5.87;;;;;;;;;;4949414;29;20480;-80
2023/10/08 15:59:12;;;;;;;21.10;6.40;;;;;;;;;;4950850;29;20493;-80
2023/10/08 16:01:38;;;;;;;19.83;6.03;;;;;;;;;;4958751;29;20480;-80
2023/10/08 16:04:06;;;;;;;15.60;6.60;;;;;;;;;;4946596;29;20441;-80
2023/10/08 16:06:32;;;;;;;20.47;6.70;;;;;;;;;;4953559;29;20453;-80
2023/10/08 16:08:58;;;;;;;13.93;5.60;;;;;;;;;;4957364;29;20488;-80
2023/10/08 16:11:24;;;;;;;12.40;6.07;;;;;;;;;;4937773;29;20437;-80
2023/10/08 16:13:50;;;;;;;17.33;5.30;;;;;;;;;;4941065;29;20888;-79
2023/10/08 16:16:16;;;;;;;17.37;5.90;;;;;;;;;;4959403;29;20441;-80
2023/10/08 16:18:42;;;;;;;14.77;5.57;;;;;;;;;;4964659;29;20492;-81
2023/10/08 16:21:11;;;;;;;15.37;5.43;;;;;;;;;;4964744;29;20784;-80
2023/10/08 16:23:37;;;;;;;12.80;4.77;;;;;;;;;;4954452;29;20409;-78
2023/10/08 16:26:05;;;;;;;17.90;6.40;;;;;;;;;;4949556;29;20439;-77
2023/10/08 16:28:31;;;;;;;20.27;4.90;;;;;;;;;;4951186;28;20436;-79
2023/10/08 16:30:58;;;;;;;19.97;5.30;;;;;;;;;;4946677;28;20556;-76
2023/10/08 16:33:29;;;;;;;13.00;5.73;;;;;;;;;;4934071;29;20468;-76
2023/10/08 16:35:55;;;;;;;16.23;6.20;;;;;;;;;;4933841;29;20414;-67
2023/10/08 16:38:21;;;;;;;27.17;9.27;;;;;;;;;;4941668;28;20428;-69
2023/10/08 16:40:48;;;;;;;29.93;11.83;;;;;;;;;;4937638;29;20615;-69
2023/10/08 16:43:16;;;;;;;21.80;10.07;;;;;;;;;;4939039;29;20429;-68
2023/10/08 16:45:43;;;;;;;29.37;10.80;;;;;;;;;;4943495;29;20469;-68
2023/10/08 16:48:10;;;;;;;26.73;8.40;;;;;;;;;;4937046;29;20913;-68
2023/10/08 16:50:36;;;;;;;16.30;6.40;;;;;;;;;;4937405;29;20456;-69
2023/10/08 16:53:02;;;;;;;15.97;6.53;;;;;;;;;;4940114;29;20496;-69
2023/10/08 16:55:28;;;;;;;15.43;5.63;;;;;;;;;;4953827;29;20428;-69
2023/10/08 16:57:54;;;;;;;16.50;7.00;;;;;;;;;;4937251;29;20828;-69
2023/10/08 17:00:21;;;;;;;22.60;7.10;;;;;;;;;;4945566;29;20480;-68
2023/10/08 17:02:47;;;;;;;24.17;7.10;;;;;;;;;;4948273;28;20770;-68
2023/10/08 17:05:16;;;;;;;29.00;9.27;;;;;;;;;;4955147;29;20448;-68
2023/10/08 17:07:43;;;;;;;22.13;8.30;;;;;;;;;;4956129;29;20408;-68
2023/10/08 17:10:09;;;;;;;15.80;6.50;;;;;;;;;;4956712;29;20788;-68
2023/10/08 17:12:35;;;;;;;17.90;7.73;;;;;;;;;;4956513;29;20436;-68
2023/10/08 17:15:05;;;;;;;20.70;8.83;;;;;;;;;;4956581;28;20516;-68
2023/10/08 17:17:31;;;;;;;22.60;7.93;;;;;;;;;;4950252;28;20421;-68
2023/10/08 17:19:57;;;;;;;16.73;7.73;;;;;;;;;;4936760;29;20475;-68
2023/10/08 17:22:24;;;;;;;16.90;7.40;;;;;;;;;;4936846;29;20447;-68
2023/10/08 17:24:50;;;;;;;18.97;7.27;;;;;;;;;;4938684;29;20428;-68
2023/10/08 17:27:16;;;;;;;28.27;8.60;;;;;;;;;;4954246;29;20913;-67
2023/10/08 17:29:42;;;;;;;17.30;6.70;;;;;;;;;;4955587;29;20421;-68
2023/10/08 17:32:08;;;;;;;16.07;7.30;;;;;;;;;;4955783;29;20926;-68
2023/10/08 17:34:35;;;;;;;16.53;7.00;;;;;;;;;;4955755;29;20767;-68
2023/10/08 17:37:01;;;;;;;15.73;7.10;;;;;;;;;;4955526;28;20417;-68
2023/10/08 17:39:27;;;;;;;21.20;7.30;;;;;;;;;;4955669;29;20456;-68
2023/10/08 17:41:53;;;;;;;18.67;8.90;;;;;;;;;;4951322;28;20463;-69
2023/10/08 17:44:22;;;;;;;33.70;11.93;;;;;;;;;;4946950;29;20442;-68
2023/10/08 17:46:48;;;;;;;18.30;8.60;;;;;;;;;;4955619;28;20832;-68
2023/10/08 17:49:14;;;;;;;25.67;9.37;;;;;;;;;;4954281;29;20412;-68
2023/10/08 17:51:40;;;;;;;25.97;11.27;;;;;;;;;;4954825;28;20487;-78
2023/10/08 17:54:10;;;;;;;24.43;8.80;;;;;;;;;;4951413;29;20441;-77
2023/10/08 17:56:37;;;;;;;24.47;8.57;;;;;;;;;;4945125;29;20421;-77
2023/10/08 17:59:04;;;;;;;21.73;9.60;;;;;;;;;;4955936;28;20440;-77
2023/10/08 18:01:30;;;;;;;20.50;8.53;;;;;;;;;;4956267;28;20853;-76
2023/10/08 18:03:56;;;;;;;23.60;8.87;;;;;;;;;;4955653;28;20409;-76
2023/10/08 18:06:22;;;;;;;23.17;8.93;;;;;;;;;;4949002;29;20422;-76
2023/10/08 18:08:52;;;;;;;28.70;9.80;;;;;;;;;;4952656;29;20432;-75
2023/10/08 18:11:22;;;;;;;22.47;10.10;;;;;;;;;;4948448;28;20487;-74
2023/10/08 18:13:50;;;;;;;19.50;9.20;;;;;;;;;;4941954;29;20822;-75
2023/10/08 18:16:17;;;;;;;23.93;11.30;;;;;;;;;;4943172;28;20449;-75
2023/10/08 18:18:43;;;;;;;17.67;10.43;;;;;;;;;;4950080;28;20449;-74
2023/10/08 18:21:10;;;;;;;22.50;9.90;;;;;;;;;;4942271;29;20983;-74
2023/10/08 18:23:39;;;;;;;26.23;9.33;;;;;;;;;;4936829;28;20417;-74
2023/10/08 18:26:05;;;;;;;18.53;9.80;;;;;;;;;;4941501;29;20448;-75
2023/10/08 18:28:31;;;;;;;21.03;10.23;;;;;;;;;;4941110;29;20425;-74
2023/10/08 18:30:58;;;;;;;19.27;10.13;;;;;;;;;;4941686;29;20448;-77
2023/10/08 18:33:23;;;;;;;26.17;10.77;;;;;;;;;;4951902;29;20519;-78
2023/10/08 18:35:51;;;;;;;17.53;9.30;;;;;;;;;;4955950;29;20944;-77
2023/10/08 18:38:17;;;;;;;27.70;9.90;;;;;;;;;;4947241;28;20799;-77
2023/10/08 18:40:42;;;;;;;26.40;10.70;;;;;;;;;;4952373;28;20476;-77
2023/10/08 18:43:09;;;;;;;21.60;9.50;;;;;;;;;;4940004;28;20433;-77
2023/10/08 18:45:35;;;;;;;23.00;11.53;;;;;;;;;;4946411;29;20421;-77
2023/10/08 18:48:02;;;;;;;20.73;10.03;;;;;;;;;;4948324;28;20818;-76
2023/10/08 18:50:28;;;;;;;29.23;9.60;;;;;;;;;;4935824;29;20509;-77
2023/10/08 18:52:55;;;;;;;26.80;9.60;;;;;;;;;;4935699;29;20460;-76
2023/10/08 18:55:22;;;;;;;18.17;9.43;;;;;;;;;;4938077;29;20865;-77
2023/10/08 18:57:52;;;;;;;15.13;8.33;;;;;;;;;;4947879;29;20487;-76
2023/10/08 19:00:20;;;;;;;20.90;9.60;;;;;;;;;;4950975;28;20632;-77
2023/10/08 19:02:46;;;;;;;25.00;10.73;;;;;;;;;;4951420;28;20803;-79
2023/10/08 19:05:14;;;;;;;24.27;10.27;;;;;;;;;;4951276;29;20963;-76
2023/10/08 19:07:41;;;;;;;24.60;9.40;;;;;;;;;;4953649;29;20424;-77
2023/10/08 19:10:09;;;;;;;22.90;10.00;;;;;;;;;;4954766;28;20536;-78
2023/10/08 19:12:36;;;;;;;20.43;9.90;;;;;;;;;;4944089;29;20453;-78
2023/10/08 19:15:04;;;;;;;23.63;10.83;;;;;;;;;;4942556;29;20929;-78
2023/10/08 19:17:30;;;;;;;22.20;9.90;;;;;;;;;;4953854;28;20440;-78
2023/10/08 19:19:56;;;;;;;26.23;11.90;;;;;;;;;;4951157;29;20461;-78
2023/10/08 19:22:22;;;;;;;24.63;11.33;;;;;;;;;;4954260;29;20463;-77
2023/10/08 19:24:48;;;;;;;23.73;11.60;;;;;;;;;;4936943;29;20437;-76
2023/10/08 19:27:15;;;;;;;39.57;16.37;;;;;;;;;;4938920;29;20429;-76
2023/10/08 19:29:42;;;;;;;31.80;13.80;;;;;;;;;;4952510;28;20440;-76
2023/10/08 19:32:10;;;;;;;30.70;15.97;;;;;;;;;;4947598;28;20441;-76
2023/10/08 19:34:38;;;;;;;30.10;13.80;;;;;;;;;;4936074;28;20451;-76
2023/10/08 19:37:04;;;;;;;28.37;13.33;;;;;;;;;;4949734;29;20482;-76
2023/10/08 19:39:30;;;;;;;25.90;11.90;;;;;;;;;;4944529;29;20465;-76
2023/10/08 19:41:56;;;;;;;26.87;10.50;;;;;;;;;;4952878;29;20441;-77
2023/10/08 19:44:22;;;;;;;28.27;9.70;;;;;;;;;;4954364;29;20420;-77
2023/10/08 19:46:49;;;;;;;21.63;10.40;;;;;;;;;;4947575;28;20429;-77
2023/10/08 19:49:17;;;;;;;19.30;9.23;;;;;;;;;;4938147;29;20436;-76
2023/10/08 19:51:43;;;;;;;21.17;11.10;;;;;;;;;;4946381;28;20436;-77
2023/10/08 19:54:10;;;;;;;34.60;13.97;;;;;;;;;;4952681;29;20441;-76
2023/10/08 19:56:36;;;;;;;23.67;10.83;;;;;;;;;;4943120;29;20482;-76
2023/10/08 19:59:02;;;;;;;21.73;10.90;;;;;;;;;;4936462;29;20425;-77
2023/10/08 20:01:28;;;;;;;23.97;9.70;;;;;;;;;;4935789;29;20469;-77
2023/10/08 20:03:54;;;;;;;21.53;9.10;;;;;;;;;;4950771;29;20459;-76
2023/10/08 20:06:20;;;;;;;19.87;10.17;;;;;;;;;;4947953;29;20449;-76
2023/10/08 20:08:47;;;;;;;21.40;10.10;;;;;;;;;;4956107;29;20940;-77
2023/10/08 20:11:13;;;;;;;21.90;9.57;;;;;;;;;;4953225;28;20464;-76
2023/10/08 20:13:42;;;;;;;22.73;10.23;;;;;;;;;;4946766;29;20895;-77
2023/10/08 20:16:08;;;;;;;21.10;9.20;;;;;;;;;;4957328;28;20519;-78
2023/10/08 20:18:35;;;;;;;21.57;9.30;;;;;;;;;;4958086;29;20971;-78
2023/10/08 20:21:04;;;;;;;39.30;10.60;;;;;;;;;;4957984;29;20516;-77
2023/10/08 20:23:34;;;;;;;26.57;10.13;;;;;;;;;;4960417;28;20935;-77
2023/10/08 20:26:00;;;;;;;20.97;9.47;;;;;;;;;;4952952;28;20925;-77
2023/10/08 20:28:27;;;;;;;19.90;8.60;;;;;;;;;;4938142;29;20410;-77
2023/10/08 20:30:53;;;;;;;19.70;10.50;;;;;;;;;;4936952;29;20449;-76
2023/10/08 20:33:20;;;;;;;28.33;9.47;;;;;;;;;;4938230;29;20516;-76
2023/10/08 20:35:49;;;;;;;35.50;10.80;;;;;;;;;;4937033;29;20457;-77
2023/10/08 20:38:16;;;;;;;23.07;10.43;;;;;;;;;;4937712;29;20500;-76